To NAV CANADA Home Page Login to a new session Search on AWWS site Feedback and Comments Disclaimer Vers la page française équivalente Tips FAQ What's new on the site To the Forecasts and Observations / NOTAM section To "File a Flight Plan" website Publications and other links Update of the User's profile FIC Telephone Numbers My Weather Data Folder Route Weather Data Regional Weather Data Local Weather Data To the Forecasts and Observations / NOTAM section
Request Generated 01/21/2017 at 02:09:25 UTC . Weather information available at that time is displayed.

METAR/TAF

LOURDES-DE-BLANC-SABLON/QC    

METAR CYBX 210200Z 04005KT 15SM -SN OVC025 M04/M05 A2991 RMK SC8
SLP134=
METAR CYBX 210100Z 05004KT 15SM -SN OVC020 M04/M05 A2993 RMK SC8
SLP139=
METAR CYBX 210000Z 05004KT 12SM -SN BKN015 M04/M05 A2995 RMK SC7
SLP145=

TAF CYBX 210138Z 2102/2114 05005KT 5SM -SN OVC020 TEMPO 2102/2114
P6SM NSW BKN025
RMK NXT FCST BY 210800Z=
Your time UTC time
Weather data provided by Environment Canada and NAV CANADA